This is the latest recevied weather packets stored in our database for station/object SQ6PCH-10. If no packets are shown the sender has not sent any weather packets the latest 10 day(s).
| Time | Temp. | Humidity | Pressure | Rain* | Wind** | Luminosity | Snow |
|---|---|---|---|---|---|---|---|
| 1777906733 | 30.56° C | 19% | 996.2 hPa | - | - | - | - |
| 1777906132 | 30.56° C | 19% | 996.3 hPa | - | - | - | - |
| 1777905532 | 30.56° C | 20% | 996.3 hPa | - | - | - | - |
| 1777904932 | 31.11° C | 20% | 996.5 hPa | - | - | - | - |
| 1777904331 | 31.11° C | 19% | 996.5 hPa | - | - | - | - |
| 1777903731 | 32.78° C | 18% | 996.6 hPa | - | - | - | - |
| 1777903131 | 32.78° C | 17% | 996.6 hPa | - | - | - | - |
| 1777902531 | 30° C | 20% | 996.6 hPa | - | - | - | - |
| 1777901931 | 32.78° C | 17% | 996.8 hPa | - | - | - | - |
| 1777901331 | 32.78° C | 17% | 996.8 hPa | - | - | - | - |
| 1777900730 | 31.67° C | 17% | 996.9 hPa | - | - | - | - |
| 1777900129 | 32.78° C | 16% | 996.9 hPa | - | - | - | - |
| 1777899529 | 33.33° C | 16% | 997.1 hPa | - | - | - | - |
| 1777898929 | 31.67° C | 18% | 997.1 hPa | - | - | - | - |
| 1777898329 | 32.78° C | 16% | 997.1 hPa | - | - | - | - |
| 1777897729 | 35° C | 14% | 997.3 hPa | - | - | - | - |
| 1777897129 | 33.89° C | 15% | 997.3 hPa | - | - | - | - |
| 1777896528 | 32.78° C | 16% | 997.5 hPa | - | - | - | - |
| 1777895928 | 31.67° C | 17% | 997.5 hPa | - | - | - | - |
| 1777895328 | 33.33° C | 15% | 997.5 hPa | - | - | - | - |
| 1777894728 | 30.56° C | 18% | 997.6 hPa | - | - | - | - |
| 1777894128 | 30° C | 18% | 997.8 hPa | - | - | - | - |
| 1777893528 | 32.78° C | 15% | 997.9 hPa | - | - | - | - |
| 1777892927 | 33.33° C | 16% | 998 hPa | - | - | - | - |
| 1777892327 | 30.56° C | 18% | 998.1 hPa | - | - | - | - |
* Rain since midnight (hover to see other rain measurements)
** Current wind speed in m/s (hover to see current wind gust speed)